LFML/MRS METAR and TAF weather

Enter ICAO airport designator
Station Type Date Time Source
LFML METAR 2022/06/27 17:30 UTC NOAA

LFML 271730Z AUTO 30015KT CAVOK 31/14 Q1012 TEMPO 34015G25KT


Station Type Date Time Source
LFML Decoded METAR 2022/06/27 17:30 UTC NOAA

Marseille / Marignane, France (LFML) 43-27N 005-14E 36M
Jun 27, 2022 - 01:30 PM EDT / 2022.06.27 1730 UTC
Wind: from the WNW (300 degrees) at 17 MPH (15 KT):0
Visibility: greater than 7 mile(s):0
Temperature: 87 F (31 C)
Dew Point: 57 F (14 C)
Relative Humidity: 35%
Pressure (altimeter): 29.88 in. Hg (1012 hPa)
ob: LFML 271730Z AUTO 30015KT CAVOK 31/14 Q1012 TEMPO 34015G25KT
cycle: 17

Station Type Date Time Source
LFML TAF 2022/06/27 15:24 UTC NOAA

TAF TAF LFML 271400Z 2715/2821 32015KT CAVOK TX34/2715Z TN21/2804Z
TEMPO 2715/2722 34015G25KT
BECMG 2723/2801 33005KT
TEMPO 2804/2812 FEW090TCU PROB30
TEMPO 2806/2810 -TSRA FEW080CB
BECMG 2809/2811 30015KT
TEMPO 2814/2818 24012KT

Example: see airport list